Time;durP1;ratioP1;P1;durP2;ratioP2;P2;SDS_P1;SDS_P2;PMS_P1;PMS_P2;Temp;Humidity;BMP_temperature;BMP_pressure;BME280_temperature;BME280_humidity;BME280_pressure;Samples;Min_cycle;Max_cycle;Signal;HPM_P1;HPM_P2
2023/09/13 00:00:25;;;;;;;;;;;;;;;;;;5052660;28;19928;-67
2023/09/13 00:02:51;;;;;;;;;;;;;;;;;;5050705;28;20877;-67
2023/09/13 00:05:17;;;;;;;;;;;;;;;;;;5050873;28;19971;-67
2023/09/13 00:07:43;;;;;;;;;;;;;;;;;;5054619;28;19921;-67
2023/09/13 00:10:09;;;;;;;;;;;;;;;;;;5054541;28;19935;-67
2023/09/13 00:12:35;;;;;;;;;;;;;;;;;;5035021;28;19925;-67
2023/09/13 00:15:01;;;;;;;;;;;;;;;;;;5054951;28;19927;-67
2023/09/13 00:17:27;;;;;;;;;;;;;;;;;;5053236;28;20278;-67
2023/09/13 00:19:56;;;;;;;;;;;;;;;;;;5054813;28;19925;-67
2023/09/13 00:22:21;;;;;;;;;;;;;;;;;;5053541;28;19928;-67
2023/09/13 00:24:47;;;;;;;;;;;;;;;;;;5054277;28;20028;-67
2023/09/13 00:27:13;;;;;;;;;;;;;;;;;;5050842;28;20007;-67
2023/09/13 00:29:39;;;;;;;;;;;;;;;;;;5053362;28;19952;-67
2023/09/13 00:32:05;;;;;;;;;;;;;;;;;;5048256;28;19924;-67
2023/09/13 00:34:31;;;;;;;;;;;;;;;;;;5053781;28;19925;-67
2023/09/13 00:36:57;;;;;;;;;;;;;;;;;;5050266;28;19928;-67
2023/09/13 00:39:23;;;;;;;;;;;;;;;;;;5049373;28;19932;-67
2023/09/13 00:41:49;;;;;;;;;;;;;;;;;;5035756;28;19928;-67
2023/09/13 00:44:15;;;;;;;;;;;;;;;;;;5058701;28;19974;-67
2023/09/13 00:46:41;;;;;;;;;;;;;;;;;;5058385;28;19921;-67
2023/09/13 00:49:06;;;;;;;;;;;;;;;;;;5056361;28;19936;-67
2023/09/13 00:51:32;;;;;;;;;;;;;;;;;;5058421;28;19928;-67
2023/09/13 00:53:58;;;;;;;;;;;;;;;;;;5036772;23;20019;-61
2023/09/13 00:56:24;;;;;;;;;;;;;;;;;;5030741;28;19921;-60
2023/09/13 00:58:51;;;;;;;;;;;;;;;;;;5031682;28;20007;-60
2023/09/13 01:01:17;;;;;;;;;;;;;;;;;;5035037;28;19925;-61
2023/09/13 01:03:43;;;;;;;;;;;;;;;;;;5040683;28;19967;-60
2023/09/13 01:06:09;;;;;;;;;;;;;;;;;;5042393;28;19921;-61
2023/09/13 01:08:35;;;;;;;;;;;;;;;;;;5042052;28;19974;-61
2023/09/13 01:11:01;;;;;;;;;;;;;;;;;;5031787;28;19921;-60
2023/09/13 01:13:27;;;;;;;;;;;;;;;;;;5034006;28;19971;-61
2023/09/13 01:15:53;;;;;;;;;;;;;;;;;;5032750;28;19925;-60
2023/09/13 01:18:18;;;;;;;;;;;;;;;;;;5035156;28;19925;-61
2023/09/13 01:20:44;;;;;;;;;;;;;;;;;;5042292;28;19932;-61
2023/09/13 01:23:10;;;;;;;;;;;;;;;;;;5013452;28;19924;-61
2023/09/13 01:25:36;;;;;;;;;;;;;;;;;;5032117;28;19925;-61
2023/09/13 01:28:02;;;;;;;;;;;;;;;;;;5033553;28;20338;-60
2023/09/13 01:30:28;;;;;;;;;;;;;;;;;;5037722;28;20026;-61
2023/09/13 01:32:54;;;;;;;;;;;;;;;;;;5036758;28;19971;-60
2023/09/13 01:35:20;;;;;;;;;;;;;;;;;;5035477;28;20011;-61
2023/09/13 01:37:46;;;;;;;;;;;;;;;;;;5028046;28;19925;-61
2023/09/13 01:40:12;;;;;;;;;;;;;;;;;;5031091;28;19928;-60
2023/09/13 01:42:41;;;;;;;;;;;;;;;;;;5029943;28;19921;-60
2023/09/13 01:45:06;;;;;;;;;;;;;;;;;;5027881;28;20039;-61
2023/09/13 01:47:32;;;;;;;;;;;;;;;;;;5040968;28;20036;-61
2023/09/13 01:49:58;;;;;;;;;;;;;;;;;;5031576;28;19943;-61
2023/09/13 01:52:24;;;;;;;;;;;;;;;;;;5038105;28;19936;-61
2023/09/13 01:54:50;;;;;;;;;;;;;;;;;;5026985;28;19933;-61
2023/09/13 01:57:16;;;;;;;;;;;;;;;;;;5032101;28;20550;-61
2023/09/13 01:59:42;;;;;;;;;;;;;;;;;;5030962;28;20004;-61
2023/09/13 02:02:08;;;;;;;;;;;;;;;;;;5031823;28;20556;-61
2023/09/13 02:04:33;;;;;;;;;;;;;;;;;;5030773;28;19932;-61
2023/09/13 02:07:03;;;;;;;;;;;;;;;;;;5032328;28;19929;-61
2023/09/13 02:09:28;;;;;;;;;;;;;;;;;;5035831;28;19932;-61
2023/09/13 02:11:54;;;;;;;;;;;;;;;;;;5035042;28;19921;-61
2023/09/13 02:14:20;;;;;;;;;;;;;;;;;;5029525;28;19936;-61
2023/09/13 02:16:46;;;;;;;;;;;;;;;;;;5029411;28;19928;-61
2023/09/13 02:19:12;;;;;;;;;;;;;;;;;;5038264;28;19921;-61
2023/09/13 02:21:38;;;;;;;;;;;;;;;;;;5031076;28;19929;-60
2023/09/13 02:24:04;;;;;;;;;;;;;;;;;;5033421;28;19980;-60
2023/09/13 02:26:31;;;;;;;;;;;;;;;;;;5030892;28;19925;-60
2023/09/13 02:28:57;;;;;;;;;;;;;;;;;;5020207;28;19924;-59
2023/09/13 02:31:23;;;;;;;;;;;;;;;;;;5029561;28;20767;-60
2023/09/13 02:33:49;;;;;;;;;;;;;;;;;;5032338;28;19929;-60
2023/09/13 02:36:15;;;;;;;;;;;;;;;;;;5036401;28;19975;-60
2023/09/13 02:38:41;;;;;;;;;;;;;;;;;;5027674;28;19925;-60
2023/09/13 02:41:07;;;;;;;;;;;;;;;;;;5037837;28;19936;-60
2023/09/13 02:43:32;;;;;;;;;;;;;;;;;;5032096;28;19967;-60
2023/09/13 02:45:58;;;;;;;;;;;;;;;;;;5033028;28;19925;-60
2023/09/13 02:48:25;;;;;;;;;;;;;;;;;;5041217;28;20354;-60
2023/09/13 02:50:51;;;;;;;;;;;;;;;;;;5024894;28;20325;-60
2023/09/13 02:53:17;;;;;;;;;;;;;;;;;;5033276;28;19925;-60
2023/09/13 02:55:43;;;;;;;;;;;;;;;;;;5035407;28;19971;-60
2023/09/13 02:58:09;;;;;;;;;;;;;;;;;;5022279;28;20016;-60
2023/09/13 03:00:35;;;;;;;;;;;;;;;;;;5028831;28;19980;-60
2023/09/13 03:03:01;;;;;;;;;;;;;;;;;;5029673;28;20130;-61
2023/09/13 03:05:26;;;;;;;;;;;;;;;;;;5030892;28;19925;-60
2023/09/13 03:07:54;;;;;;;;;;;;;;;;;;5030078;28;19978;-60
2023/09/13 03:10:20;;;;;;;;;;;;;;;;;;5031667;28;19929;-60
2023/09/13 03:12:46;;;;;;;;;;;;;;;;;;5028785;28;19925;-60
2023/09/13 03:15:12;;;;;;;;;;;;;;;;;;5029588;28;19928;-60
2023/09/13 03:17:37;;;;;;;;;;;;;;;;;;5029267;28;19964;-60
2023/09/13 03:20:03;;;;;;;;;;;;;;;;;;5029643;28;20675;-60
2023/09/13 03:22:29;;;;;;;;;;;;;;;;;;5030150;28;19929;-60
2023/09/13 03:24:55;;;;;;;;;;;;;;;;;;5026590;28;20059;-60
2023/09/13 03:27:21;;;;;;;;;;;;;;;;;;5027118;28;19921;-60
2023/09/13 03:29:47;;;;;;;;;;;;;;;;;;5028810;28;20006;-60
2023/09/13 03:32:13;;;;;;;;;;;;;;;;;;5030537;28;19952;-60
2023/09/13 03:34:39;;;;;;;;;;;;;;;;;;5029610;28;19967;-60
2023/09/13 03:37:05;;;;;;;;;;;;;;;;;;5027051;28;19921;-60
2023/09/13 03:39:31;;;;;;;;;;;;;;;;;;5029399;28;19921;-60
2023/09/13 03:41:57;;;;;;;;;;;;;;;;;;5029503;28;19928;-60
2023/09/13 03:44:23;;;;;;;;;;;;;;;;;;5030221;28;20405;-60
2023/09/13 03:46:49;;;;;;;;;;;;;;;;;;5026214;28;19921;-60
2023/09/13 03:49:15;;;;;;;;;;;;;;;;;;5026610;28;19925;-60
2023/09/13 03:51:41;;;;;;;;;;;;;;;;;;5028137;28;19921;-60
2023/09/13 03:54:07;;;;;;;;;;;;;;;;;;5025502;28;19933;-60
2023/09/13 03:56:33;;;;;;;;;;;;;;;;;;5026526;28;19975;-60
2023/09/13 03:58:59;;;;;;;;;;;;;;;;;;5025346;28;19931;-61
2023/09/13 04:01:25;;;;;;;;;;;;;;;;;;5028852;28;19925;-60
2023/09/13 04:03:51;;;;;;;;;;;;;;;;;;5033183;28;19927;-60
2023/09/13 04:06:17;;;;;;;;;;;;;;;;;;5031393;28;20011;-60
2023/09/13 04:08:43;;;;;;;;;;;;;;;;;;5033920;28;19921;-60
2023/09/13 04:11:09;;;;;;;;;;;;;;;;;;5028115;28;19956;-60
2023/09/13 04:13:35;;;;;;;;;;;;;;;;;;5035513;28;19967;-60
2023/09/13 04:16:01;;;;;;;;;;;;;;;;;;5031141;28;19932;-60
2023/09/13 04:18:27;;;;;;;;;;;;;;;;;;5039897;28;19920;-60
2023/09/13 04:20:53;;;;;;;;;;;;;;;;;;5034800;28;19970;-60
2023/09/13 04:23:19;;;;;;;;;;;;;;;;;;5030702;28;19925;-60
2023/09/13 04:25:45;;;;;;;;;;;;;;;;;;5035002;28;19925;-60
2023/09/13 04:28:10;;;;;;;;;;;;;;;;;;5029964;28;19967;-60
2023/09/13 04:30:37;;;;;;;;;;;;;;;;;;5033500;28;19921;-60
2023/09/13 04:33:03;;;;;;;;;;;;;;;;;;5032239;28;20513;-60
2023/09/13 04:35:29;;;;;;;;;;;;;;;;;;5033443;28;19929;-60
2023/09/13 04:37:54;;;;;;;;;;;;;;;;;;5031265;28;20355;-59
2023/09/13 04:40:21;;;;;;;;;;;;;;;;;;5029503;28;19979;-59
2023/09/13 04:42:47;;;;;;;;;;;;;;;;;;5033117;28;19929;-60
2023/09/13 04:45:13;;;;;;;;;;;;;;;;;;5030238;28;19948;-60
2023/09/13 04:47:39;;;;;;;;;;;;;;;;;;5033828;28;20437;-60
2023/09/13 04:50:05;;;;;;;;;;;;;;;;;;5030992;28;19925;-59
2023/09/13 04:52:31;;;;;;;;;;;;;;;;;;5029845;28;20410;-60
2023/09/13 04:54:56;;;;;;;;;;;;;;;;;;5028797;28;19931;-60
2023/09/13 04:57:22;;;;;;;;;;;;;;;;;;5033934;28;20270;-60
2023/09/13 04:59:48;;;;;;;;;;;;;;;;;;5027649;28;19929;-60
2023/09/13 05:02:14;;;;;;;;;;;;;;;;;;5044541;28;19998;-60
2023/09/13 05:04:40;;;;;;;;;;;;;;;;;;5038686;28;19987;-60
2023/09/13 05:07:06;;;;;;;;;;;;;;;;;;5033467;28;19927;-60
2023/09/13 05:09:32;;;;;;;;;;;;;;;;;;5029523;28;20024;-60
2023/09/13 05:11:58;;;;;;;;;;;;;;;;;;5029163;28;20333;-60
2023/09/13 05:14:24;;;;;;;;;;;;;;;;;;5031015;28;20422;-60
2023/09/13 05:16:49;;;;;;;;;;;;;;;;;;5032222;28;19921;-60
2023/09/13 05:19:15;;;;;;;;;;;;;;;;;;5032643;28;19927;-60
2023/09/13 05:21:41;;;;;;;;;;;;;;;;;;5037296;28;19944;-60
2023/09/13 05:24:07;;;;;;;;;;;;;;;;;;5029837;28;20323;-60
2023/09/13 05:26:33;;;;;;;;;;;;;;;;;;5034915;28;19924;-60
2023/09/13 05:29:00;;;;;;;;;;;;;;;;;;5035763;28;19972;-60
2023/09/13 05:31:26;;;;;;;;;;;;;;;;;;5034545;28;20282;-60
2023/09/13 05:33:52;;;;;;;;;;;;;;;;;;5033847;28;19936;-60
2023/09/13 05:36:18;;;;;;;;;;;;;;;;;;5029746;28;19965;-61
2023/09/13 05:38:44;;;;;;;;;;;;;;;;;;5033435;28;19929;-60
2023/09/13 05:41:10;;;;;;;;;;;;;;;;;;5029693;28;19971;-60
2023/09/13 05:43:36;;;;;;;;;;;;;;;;;;5030282;28;19929;-61
2023/09/13 05:46:02;;;;;;;;;;;;;;;;;;5033840;28;20370;-61
2023/09/13 05:48:28;;;;;;;;;;;;;;;;;;5031613;28;20316;-61
2023/09/13 05:50:54;;;;;;;;;;;;;;;;;;5028523;28;19975;-61
2023/09/13 05:53:20;;;;;;;;;;;;;;;;;;5029010;28;19929;-60
2023/09/13 05:55:46;;;;;;;;;;;;;;;;;;5032073;28;19921;-60
2023/09/13 05:58:12;;;;;;;;;;;;;;;;;;5040196;28;19921;-60
2023/09/13 06:00:38;;;;;;;;;;;;;;;;;;5018679;28;20438;-60
2023/09/13 06:03:04;;;;;;;;;;;;;;;;;;5036491;28;19959;-60
2023/09/13 06:05:30;;;;;;;;;;;;;;;;;;5036181;28;19921;-61
2023/09/13 06:07:56;;;;;;;;;;;;;;;;;;5045962;28;20366;-60
2023/09/13 06:10:22;;;;;;;;;;;;;;;;;;5033898;28;19928;-61
2023/09/13 06:12:47;;;;;;;;;;;;;;;;;;5037856;28;20367;-61
2023/09/13 06:15:13;;;;;;;;;;;;;;;;;;5025007;28;19921;-61
2023/09/13 06:17:39;;;;;;;;;;;;;;;;;;5039219;28;19928;-61
2023/09/13 06:20:05;;;;;;;;;;;;;;;;;;5026086;28;19921;-61
2023/09/13 06:22:32;;;;;;;;;;;;;;;;;;5033641;28;20397;-61
2023/09/13 06:24:58;;;;;;;;;;;;;;;;;;5032968;28;20314;-61
2023/09/13 06:27:24;;;;;;;;;;;;;;;;;;5034672;28;19922;-61
2023/09/13 06:29:50;;;;;;;;;;;;;;;;;;5023536;28;20014;-61
2023/09/13 06:32:16;;;;;;;;;;;;;;;;;;5026453;28;19942;-61
2023/09/13 06:34:42;;;;;;;;;;;;;;;;;;5022476;28;19936;-61
2023/09/13 06:37:07;;;;;;;;;;;;;;;;;;5028448;28;19924;-61
2023/09/13 06:39:34;;;;;;;;;;;;;;;;;;5028402;28;20020;-61
2023/09/13 06:42:00;;;;;;;;;;;;;;;;;;5027343;28;19936;-61
2023/09/13 06:44:26;;;;;;;;;;;;;;;;;;5031887;28;19921;-61
2023/09/13 06:46:51;;;;;;;;;;;;;;;;;;5027559;28;19925;-61
2023/09/13 06:49:17;;;;;;;;;;;;;;;;;;5021376;28;19921;-61
2023/09/13 06:51:43;;;;;;;;;;;;;;;;;;5029209;28;19921;-61
2023/09/13 06:54:09;;;;;;;;;;;;;;;;;;5026627;28;19957;-61
2023/09/13 06:56:35;;;;;;;;;;;;;;;;;;5027437;28;20355;-60
2023/09/13 06:59:01;;;;;;;;;;;;;;;;;;5026336;28;19971;-61
2023/09/13 07:01:27;;;;;;;;;;;;;;;;;;5028273;28;19974;-61
2023/09/13 07:03:53;;;;;;;;;;;;;;;;;;5039015;28;19925;-61
2023/09/13 07:06:19;;;;;;;;;;;;;;;;;;5033229;28;19976;-60
2023/09/13 07:08:45;;;;;;;;;;;;;;;;;;5035043;28;19931;-61
2023/09/13 07:11:10;;;;;;;;;;;;;;;;;;5021458;28;19925;-60
2023/09/13 07:13:36;;;;;;;;;;;;;;;;;;5055913;28;19928;-60
2023/09/13 07:16:02;;;;;;;;;;;;;;;;;;5029469;28;19925;-61
2023/09/13 07:18:28;;;;;;;;;;;;;;;;;;5026006;28;19993;-61
2023/09/13 07:20:54;;;;;;;;;;;;;;;;;;5027912;28;19980;-61
2023/09/13 07:23:20;;;;;;;;;;;;;;;;;;5028523;28;20306;-60
2023/09/13 07:25:46;;;;;;;;;;;;;;;;;;5028861;28;19931;-61
2023/09/13 07:28:12;;;;;;;;;;;;;;;;;;5026614;28;19960;-60
2023/09/13 07:30:38;;;;;;;;;;;;;;;;;;5034236;28;19921;-61
2023/09/13 07:33:04;;;;;;;;;;;;;;;;;;5029506;28;20004;-60
2023/09/13 07:35:30;;;;;;;;;;;;;;;;;;5034659;28;20035;-61
2023/09/13 07:37:56;;;;;;;;;;;;;;;;;;5034894;28;19925;-60
2023/09/13 07:40:22;;;;;;;;;;;;;;;;;;5032850;28;20008;-60
2023/09/13 07:42:47;;;;;;;;;;;;;;;;;;5031263;28;19953;-61
2023/09/13 07:45:13;;;;;;;;;;;;;;;;;;5034550;28;19925;-60
2023/09/13 07:47:39;;;;;;;;;;;;;;;;;;5038655;28;19925;-60
2023/09/13 07:50:05;;;;;;;;;;;;;;;;;;5026748;28;19928;-60
2023/09/13 07:52:31;;;;;;;;;;;;;;;;;;5034570;28;20267;-60
2023/09/13 07:54:57;;;;;;;;;;;;;;;;;;5030927;28;19945;-61
2023/09/13 07:57:23;;;;;;;;;;;;;;;;;;5033733;28;19928;-61
2023/09/13 07:59:49;;;;;;;;;;;;;;;;;;5052000;28;19925;-60
2023/09/13 08:02:15;;;;;;;;;;;;;;;;;;5033440;28;19925;-60
2023/09/13 08:04:40;;;;;;;;;;;;;;;;;;5029110;28;20058;-61
2023/09/13 08:07:06;;;;;;;;;;;;;;;;;;5035345;28;20255;-60
2023/09/13 08:09:34;;;;;;;;;;;;;;;;;;5037854;28;20444;-61
2023/09/13 08:12:00;;;;;;;;;;;;;;;;;;5031730;28;20371;-61
2023/09/13 08:14:28;;;;;;;;;;;;;;;;;;5036554;28;21267;-60
2023/09/13 08:16:53;;;;;;;;;;;;;;;;;;5030996;28;19921;-61
2023/09/13 08:19:19;;;;;;;;;;;;;;;;;;5037606;28;19921;-61
2023/09/13 08:21:45;;;;;;;;;;;;;;;;;;5031500;28;19972;-61
2023/09/13 08:24:11;;;;;;;;;;;;;;;;;;5035046;28;20469;-60
2023/09/13 08:26:37;;;;;;;;;;;;;;;;;;5024193;28;20008;-60
2023/09/13 08:29:03;;;;;;;;;;;;;;;;;;5032096;28;19968;-60
2023/09/13 08:31:29;;;;;;;;;;;;;;;;;;5044254;28;19932;-61
2023/09/13 08:33:55;;;;;;;;;;;;;;;;;;5031592;28;19925;-60
2023/09/13 08:36:21;;;;;;;;;;;;;;;;;;5033983;28;20011;-60
2023/09/13 08:38:47;;;;;;;;;;;;;;;;;;5031082;28;19979;-61
2023/09/13 08:41:13;;;;;;;;;;;;;;;;;;5027258;28;20643;-60
2023/09/13 08:43:39;;;;;;;;;;;;;;;;;;5025493;28;20382;-61
2023/09/13 08:46:06;;;;;;;;;;;;;;;;;;5029774;28;19928;-61
2023/09/13 08:48:32;;;;;;;;;;;;;;;;;;5030924;28;19991;-61
2023/09/13 08:50:58;;;;;;;;;;;;;;;;;;5031766;28;19925;-60
2023/09/13 08:53:24;;;;;;;;;;;;;;;;;;5025245;28;19925;-60
2023/09/13 08:55:50;;;;;;;;;;;;;;;;;;5039262;28;19925;-60
2023/09/13 08:58:16;;;;;;;;;;;;;;;;;;5026900;28;19921;-60
2023/09/13 09:00:42;;;;;;;;;;;;;;;;;;5036715;28;19925;-61
2023/09/13 09:03:08;;;;;;;;;;;;;;;;;;5026512;28;19932;-60
2023/09/13 09:05:34;;;;;;;;;;;;;;;;;;5033433;28;19964;-60
2023/09/13 09:07:59;;;;;;;;;;;;;;;;;;5025041;28;19921;-60
2023/09/13 09:10:25;;;;;;;;;;;;;;;;;;5028973;28;19959;-60
2023/09/13 09:12:51;;;;;;;;;;;;;;;;;;5035883;28;19929;-61
2023/09/13 09:15:17;;;;;;;;;;;;;;;;;;5032717;28;19925;-61
2023/09/13 09:17:43;;;;;;;;;;;;;;;;;;5058326;28;19929;-61
2023/09/13 09:20:09;;;;;;;;;;;;;;;;;;5033388;28;19964;-60
2023/09/13 09:22:35;;;;;;;;;;;;;;;;;;5035573;28;20393;-60
2023/09/13 09:25:01;;;;;;;;;;;;;;;;;;5023160;28;19925;-61
2023/09/13 09:27:27;;;;;;;;;;;;;;;;;;5031165;28;19921;-61
2023/09/13 09:29:53;;;;;;;;;;;;;;;;;;5034424;28;19928;-61
2023/09/13 09:32:18;;;;;;;;;;;;;;;;;;5028305;28;19929;-61
2023/09/13 09:34:44;;;;;;;;;;;;;;;;;;5041437;28;19982;-60
2023/09/13 09:37:11;;;;;;;;;;;;;;;;;;5039058;28;20385;-61
2023/09/13 09:39:37;;;;;;;;;;;;;;;;;;5034705;28;19920;-60
2023/09/13 09:42:03;;;;;;;;;;;;;;;;;;5026667;28;20383;-61
2023/09/13 09:44:29;;;;;;;;;;;;;;;;;;5027157;28;19928;-61
2023/09/13 09:46:55;;;;;;;;;;;;;;;;;;5028083;28;19921;-61
2023/09/13 09:49:21;;;;;;;;;;;;;;;;;;5029967;28;19953;-60
2023/09/13 09:51:47;;;;;;;;;;;;;;;;;;5033180;28;20290;-60
2023/09/13 09:54:13;;;;;;;;;;;;;;;;;;5028705;28;19932;-61
2023/09/13 09:56:39;;;;;;;;;;;;;;;;;;5034616;28;19948;-61
2023/09/13 09:59:04;;;;;;;;;;;;;;;;;;5031378;28;20417;-61
2023/09/13 10:01:30;;;;;;;;;;;;;;;;;;5028240;28;20027;-60
2023/09/13 10:03:59;;;;;;;;;;;;;;;;;;5029529;28;20013;-61
2023/09/13 10:06:25;;;;;;;;;;;;;;;;;;5030374;28;20310;-61
2023/09/13 10:08:51;;;;;;;;;;;;;;;;;;5036948;28;19928;-60
2023/09/13 10:11:16;;;;;;;;;;;;;;;;;;5030945;28;19921;-61
2023/09/13 10:13:45;;;;;;;;;;;;;;;;;;5028950;28;19929;-60
2023/09/13 10:16:11;;;;;;;;;;;;;;;;;;5033769;28;20270;-61
2023/09/13 10:18:37;;;;;;;;;;;;;;;;;;5029995;28;19929;-60
2023/09/13 10:21:03;;;;;;;;;;;;;;;;;;5028124;28;19925;-60
2023/09/13 10:23:29;;;;;;;;;;;;;;;;;;5027616;28;19940;-60
2023/09/13 10:25:55;;;;;;;;;;;;;;;;;;5031510;28;20018;-61
2023/09/13 10:28:21;;;;;;;;;;;;;;;;;;5029115;28;19921;-60
2023/09/13 10:30:47;;;;;;;;;;;;;;;;;;5033277;28;19975;-60
2023/09/13 10:33:14;;;;;;;;;;;;;;;;;;5028222;28;19925;-61
2023/09/13 10:35:40;;;;;;;;;;;;;;;;;;5030141;28;21295;-61
2023/09/13 10:38:06;;;;;;;;;;;;;;;;;;5022369;28;19925;-60
2023/09/13 10:40:31;;;;;;;;;;;;;;;;;;5027402;28;19936;-60
2023/09/13 10:42:57;;;;;;;;;;;;;;;;;;5028910;28;19927;-61
2023/09/13 10:45:24;;;;;;;;;;;;;;;;;;5026833;28;19925;-60
2023/09/13 10:47:50;;;;;;;;;;;;;;;;;;5030144;28;19932;-60
2023/09/13 10:50:16;;;;;;;;;;;;;;;;;;5028614;28;19933;-61
2023/09/13 10:52:42;;;;;;;;;;;;;;;;;;5031544;28;19925;-61
2023/09/13 10:55:08;;;;;;;;;;;;;;;;;;5036283;28;20016;-60
2023/09/13 10:57:34;;;;;;;;;;;;;;;;;;5027655;28;20059;-60
2023/09/13 11:00:00;;;;;;;;;;;;;;;;;;5032854;28;19929;-61
2023/09/13 11:02:26;;;;;;;;;;;;;;;;;;5030275;28;20016;-61
2023/09/13 11:04:52;;;;;;;;;;;;;;;;;;5029647;28;19933;-60
2023/09/13 11:07:18;;;;;;;;;;;;;;;;;;5038168;28;19997;-61
2023/09/13 11:09:45;;;;;;;;;;;;;;;;;;5032306;28;20489;-61
2023/09/13 11:12:11;;;;;;;;;;;;;;;;;;5036972;28;20454;-61
2023/09/13 11:14:37;;;;;;;;;;;;;;;;;;5028631;28;20004;-61
2023/09/13 11:17:03;;;;;;;;;;;;;;;;;;5025070;28;19928;-61
2023/09/13 11:19:29;;;;;;;;;;;;;;;;;;5029160;28;20379;-61
2023/09/13 11:22:00;;;;;;;;;;;;;;;;;;5031716;28;20055;-61
2023/09/13 11:24:25;;;;;;;;;;;;;;;;;;5018792;28;19932;-61
2023/09/13 11:26:54;;;;;;;;;;;;;;;;;;5034178;28;19921;-61
2023/09/13 11:29:20;;;;;;;;;;;;;;;;;;5027590;28;19921;-61
2023/09/13 11:31:45;;;;;;;;;;;;;;;;;;5029482;28;19921;-61
2023/09/13 11:34:12;;;;;;;;;;;;;;;;;;5043532;28;19925;-61
2023/09/13 11:36:37;;;;;;;;;;;;;;;;;;5035090;28;20294;-61
2023/09/13 11:39:05;;;;;;;;;;;;;;;;;;5041712;28;19927;-61
2023/09/13 11:41:31;;;;;;;;;;;;;;;;;;5037620;28;19964;-61
2023/09/13 11:43:58;;;;;;;;;;;;;;;;;;5031050;28;19961;-60
2023/09/13 11:46:25;;;;;;;;;;;;;;;;;;5032645;28;19924;-60
2023/09/13 11:48:52;;;;;;;;;;;;;;;;;;5030324;28;19955;-60
2023/09/13 11:51:18;;;;;;;;;;;;;;;;;;5030904;28;19921;-60
2023/09/13 11:53:43;;;;;;;;;;;;;;;;;;5038871;28;20341;-60
2023/09/13 11:56:09;;;;;;;;;;;;;;;;;;5030078;28;19943;-61
2023/09/13 11:58:36;;;;;;;;;;;;;;;;;;5030771;28;19925;-60
2023/09/13 12:01:03;;;;;;;;;;;;;;;;;;5028397;28;20306;-60
2023/09/13 12:03:29;;;;;;;;;;;;;;;;;;5035929;28;20011;-60
2023/09/13 12:05:55;;;;;;;;;;;;;;;;;;5035532;28;20024;-60
2023/09/13 12:08:22;;;;;;;;;;;;;;;;;;5032896;28;19967;-60
2023/09/13 12:10:49;;;;;;;;;;;;;;;;;;5039473;28;19929;-60
2023/09/13 12:13:15;;;;;;;;;;;;;;;;;;5032609;28;19925;-60
2023/09/13 12:15:41;;;;;;;;;;;;;;;;;;5033755;28;20384;-61
2023/09/13 12:18:07;;;;;;;;;;;;;;;;;;5035027;28;19921;-62
2023/09/13 12:20:32;;;;;;;;;;;;;;;;;;5031428;28;19972;-61
2023/09/13 12:22:58;;;;;;;;;;;;;;;;;;5038873;28;19935;-61
2023/09/13 12:25:27;;;;;;;;;;;;;;;;;;5031992;28;19932;-61
2023/09/13 12:27:53;;;;;;;;;;;;;;;;;;5035177;28;20005;-62
2023/09/13 12:30:19;;;;;;;;;;;;;;;;;;5039678;28;20019;-62
2023/09/13 12:32:45;;;;;;;;;;;;;;;;;;5050106;28;19925;-62
2023/09/13 12:35:11;;;;;;;;;;;;;;;;;;5041556;28;19925;-62
2023/09/13 12:37:37;;;;;;;;;;;;;;;;;;5043590;28;19925;-62
2023/09/13 12:40:03;;;;;;;;;;;;;;;;;;5035878;28;19921;-61
2023/09/13 12:42:29;;;;;;;;;;;;;;;;;;5043335;28;20268;-61
2023/09/13 12:44:55;;;;;;;;;;;;;;;;;;5036058;28;20553;-62
2023/09/13 12:47:21;;;;;;;;;;;;;;;;;;5033445;28;19925;-61
2023/09/13 12:49:46;;;;;;;;;;;;;;;;;;5041872;28;19921;-62
2023/09/13 12:52:12;;;;;;;;;;;;;;;;;;5037724;28;20496;-61
2023/09/13 12:54:40;;;;;;;;;;;;;;;;;;5030874;28;19933;-61
2023/09/13 12:57:06;;;;;;;;;;;;;;;;;;5037064;28;20485;-61
2023/09/13 12:59:32;;;;;;;;;;;;;;;;;;5034444;28;19925;-61
2023/09/13 13:01:59;;;;;;;;;;;;;;;;;;5033853;28;19925;-61
2023/09/13 13:04:25;;;;;;;;;;;;;;;;;;5032163;28;19952;-61
2023/09/13 13:06:51;;;;;;;;;;;;;;;;;;5036061;28;19955;-62
2023/09/13 13:09:19;;;;;;;;;;;;;;;;;;5062722;23;19924;-66
2023/09/13 13:11:45;;;;;;;;;;;;;;;;;;5052220;28;20413;-66
2023/09/13 13:14:11;;;;;;;;;;;;;;;;;;5070929;28;19931;-65
2023/09/13 13:16:37;;;;;;;;;;;;;;;;;;5066824;28;19927;-66
2023/09/13 13:19:03;;;;;;;;;;;;;;;;;;5067649;28;20369;-65
2023/09/13 13:21:29;;;;;;;;;;;;;;;;;;5067843;28;19928;-66
2023/09/13 13:23:55;;;;;;;;;;;;;;;;;;5060720;28;20369;-65
2023/09/13 13:26:24;;;;;;;;;;;;;;;;;;5067969;28;19923;-66
2023/09/13 13:28:50;;;;;;;;;;;;;;;;;;5064890;28;20346;-65
2023/09/13 13:31:16;;;;;;;;;;;;;;;;;;5061470;28;19925;-66
2023/09/13 13:33:43;;;;;;;;;;;;;;;;;;5066100;28;19970;-66
2023/09/13 13:36:09;;;;;;;;;;;;;;;;;;5046135;28;19998;-66
2023/09/13 13:38:35;;;;;;;;;;;;;;;;;;5061685;28;20008;-66
2023/09/13 13:41:00;;;;;;;;;;;;;;;;;;5064708;28;19934;-66
2023/09/13 13:43:26;;;;;;;;;;;;;;;;;;5045007;28;19920;-66
2023/09/13 13:45:52;;;;;;;;;;;;;;;;;;5050118;28;20414;-66
2023/09/13 13:48:18;;;;;;;;;;;;;;;;;;5065000;28;19925;-66
2023/09/13 13:50:44;;;;;;;;;;;;;;;;;;5051233;28;19924;-66
2023/09/13 13:53:10;;;;;;;;;;;;;;;;;;5072126;28;19924;-66
2023/09/13 13:55:36;;;;;;;;;;;;;;;;;;5070602;28;19944;-66
2023/09/13 13:58:02;;;;;;;;;;;;;;;;;;5068197;28;19920;-66
2023/09/13 14:00:28;;;;;;;;;;;;;;;;;;5069787;28;19925;-66
2023/09/13 14:02:55;;;;;;;;;;;;;;;;;;5071630;28;19967;-66
2023/09/13 14:05:21;;;;;;;;;;;;;;;;;;5070714;28;19931;-65
2023/09/13 14:07:47;;;;;;;;;;;;;;;;;;5052846;28;19924;-65
2023/09/13 14:10:13;;;;;;;;;;;;;;;;;;5053990;28;19928;-65
2023/09/13 14:12:39;;;;;;;;;;;;;;;;;;5071573;28;19963;-65
2023/09/13 14:15:05;;;;;;;;;;;;;;;;;;5068278;28;19974;-65
2023/09/13 14:17:31;;;;;;;;;;;;;;;;;;5064014;28;19928;-67
2023/09/13 14:19:57;;;;;;;;;;;;;;;;;;5064908;28;20113;-67
2023/09/13 14:22:22;;;;;;;;;;;;;;;;;;5071548;28;20421;-67
2023/09/13 14:24:48;;;;;;;;;;;;;;;;;;5068960;28;19974;-67
2023/09/13 14:27:14;;;;;;;;;;;;;;;;;;5045318;28;20415;-67
2023/09/13 14:29:40;;;;;;;;;;;;;;;;;;5061186;28;20863;-67
2023/09/13 14:32:06;;;;;;;;;;;;;;;;;;5068296;28;20029;-67
2023/09/13 14:34:34;;;;;;;;;;;;;;;;;;5061876;28;20274;-66
2023/09/13 14:37:01;;;;;;;;;;;;;;;;;;5068829;28;20322;-67
2023/09/13 14:39:27;;;;;;;;;;;;;;;;;;5070144;28;20350;-66
2023/09/13 14:41:53;;;;;;;;;;;;;;;;;;5065493;28;19925;-66
2023/09/13 14:44:18;;;;;;;;;;;;;;;;;;5064427;28;20282;-66
2023/09/13 14:46:44;;;;;;;;;;;;;;;;;;5068057;28;19949;-66
2023/09/13 14:49:10;;;;;;;;;;;;;;;;;;5065368;28;19920;-66
2023/09/13 14:51:37;;;;;;;;;;;;;;;;;;5072285;28;19931;-66
2023/09/13 14:54:03;;;;;;;;;;;;;;;;;;5052197;28;20006;-66
2023/09/13 14:56:29;;;;;;;;;;;;;;;;;;5066219;28;19938;-66
2023/09/13 14:58:55;;;;;;;;;;;;;;;;;;5052078;28;19936;-66
2023/09/13 15:01:21;;;;;;;;;;;;;;;;;;5029824;28;19929;-67
2023/09/13 15:03:47;;;;;;;;;;;;;;;;;;5062860;28;19920;-67
2023/09/13 15:06:17;;;;;;;;;;;;;;;;;;5064511;28;19920;-67
2023/09/13 15:08:43;;;;;;;;;;;;;;;;;;5064879;28;19931;-67
2023/09/13 15:11:09;;;;;;;;;;;;;;;;;;5064842;28;19927;-67
2023/09/13 15:13:34;;;;;;;;;;;;;;;;;;5061344;28;19920;-67
2023/09/13 15:16:00;;;;;;;;;;;;;;;;;;5065533;28;20391;-66
2023/09/13 15:18:26;;;;;;;;;;;;;;;;;;5064155;28;19920;-67
2023/09/13 15:20:52;;;;;;;;;;;;;;;;;;5062315;28;19973;-67
2023/09/13 15:23:18;;;;;;;;;;;;;;;;;;5062872;28;19920;-67
2023/09/13 15:25:44;;;;;;;;;;;;;;;;;;5062344;28;22301;-66
2023/09/13 15:28:10;;;;;;;;;;;;;;;;;;5063427;28;19925;-66
2023/09/13 15:30:36;;;;;;;;;;;;;;;;;;5051372;28;20301;-66
2023/09/13 15:33:03;;;;;;;;;;;;;;;;;;5065283;28;19952;-67
2023/09/13 15:35:29;;;;;;;;;;;;;;;;;;5043726;28;19920;-67
2023/09/13 15:37:55;;;;;;;;;;;;;;;;;;5066539;28;19927;-67
2023/09/13 15:40:21;;;;;;;;;;;;;;;;;;5064951;28;19936;-67
2023/09/13 15:42:47;;;;;;;;;;;;;;;;;;5046229;28;19932;-65
2023/09/13 15:45:12;;;;;;;;;;;;;;;;;;5028130;28;19925;-66
2023/09/13 15:47:38;;;;;;;;;;;;;;;;;;5062411;28;19931;-65
2023/09/13 15:50:04;;;;;;;;;;;;;;;;;;5057629;28;20063;-65
2023/09/13 15:52:30;;;;;;;;;;;;;;;;;;5067605;28;19928;-66
2023/09/13 15:54:57;;;;;;;;;;;;;;;;;;5062573;28;20314;-66
2023/09/13 15:57:23;;;;;;;;;;;;;;;;;;5066471;28;19924;-66
2023/09/13 15:59:49;;;;;;;;;;;;;;;;;;5054817;28;19931;-66
2023/09/13 16:02:15;;;;;;;;;;;;;;;;;;5067034;28;19925;-66
2023/09/13 16:04:41;;;;;;;;;;;;;;;;;;5071603;28;19927;-66
2023/09/13 16:07:07;;;;;;;;;;;;;;;;;;5056975;28;19924;-66
2023/09/13 16:09:32;;;;;;;;;;;;;;;;;;5055498;28;19924;-65
2023/09/13 16:11:58;;;;;;;;;;;;;;;;;;5073524;28;20261;-65
2023/09/13 16:14:24;;;;;;;;;;;;;;;;;;5050043;28;19925;-67
2023/09/13 16:16:50;;;;;;;;;;;;;;;;;;5070846;28;19997;-66
2023/09/13 16:19:16;;;;;;;;;;;;;;;;;;5054423;28;19920;-67
2023/09/13 16:21:42;;;;;;;;;;;;;;;;;;5072446;28;19924;-67
2023/09/13 16:24:08;;;;;;;;;;;;;;;;;;5068175;28;20069;-66
2023/09/13 16:26:35;;;;;;;;;;;;;;;;;;5054386;28;20010;-67
2023/09/13 16:29:01;;;;;;;;;;;;;;;;;;5057505;28;20336;-66
2023/09/13 16:31:27;;;;;;;;;;;;;;;;;;5066432;28;20046;-66
2023/09/13 16:33:53;;;;;;;;;;;;;;;;;;5069578;28;19924;-66
2023/09/13 16:36:19;;;;;;;;;;;;;;;;;;5072886;28;19928;-65